Time;durP1;ratioP1;P1;durP2;ratioP2;P2;SDS_P1;SDS_P2;PMS_P1;PMS_P2;Temp;Humidity;BMP_temperature;BMP_pressure;BME280_temperature;BME280_humidity;BME280_pressure;Samples;Min_cycle;Max_cycle;Signal;HPM_P1;HPM_P2
2022/08/19 00:01:13;;;;;;;7.35;6.00;;;18.60;99.90;;;;;;5035530;28;20118;-64
2022/08/19 00:03:39;;;;;;;7.82;6.05;;;18.60;99.90;;;;;;5032895;28;20046;-64
2022/08/19 00:06:05;;;;;;;8.95;6.50;;;18.50;99.90;;;;;;5043655;28;20482;-64
2022/08/19 00:08:31;;;;;;;8.45;6.00;;;18.50;99.90;;;;;;5038840;28;20053;-64
2022/08/19 00:10:57;;;;;;;8.30;6.25;;;18.50;99.90;;;;;;5057586;28;20045;-65
2022/08/19 00:13:23;;;;;;;8.25;6.45;;;18.50;99.90;;;;;;5034054;28;20475;-65
2022/08/19 00:15:48;;;;;;;7.70;6.50;;;18.50;99.90;;;;;;5040184;28;20068;-65
2022/08/19 00:18:14;;;;;;;9.57;7.00;;;18.40;99.90;;;;;;5037389;28;20045;-64
2022/08/19 00:20:40;;;;;;;8.40;6.03;;;18.40;99.90;;;;;;5039911;28;20033;-65
2022/08/19 00:23:06;;;;;;;7.78;6.28;;;18.40;99.90;;;;;;5038454;28;20053;-65
2022/08/19 00:25:33;;;;;;;8.55;6.68;;;18.40;99.90;;;;;;5038971;28;20049;-65
2022/08/19 00:27:59;;;;;;;8.50;6.80;;;18.40;99.90;;;;;;5037371;28;20055;-65
2022/08/19 00:30:27;;;;;;;9.00;7.18;;;18.30;99.90;;;;;;5034952;28;20041;-65
2022/08/19 00:32:55;;;;;;;7.97;6.55;;;18.30;99.90;;;;;;5042867;28;20399;-65
2022/08/19 00:35:21;;;;;;;10.32;7.07;;;18.30;99.90;;;;;;5042272;28;20045;-64
2022/08/19 00:37:48;;;;;;;7.72;6.72;;;18.20;99.90;;;;;;5035683;28;20167;-64
2022/08/19 00:40:15;;;;;;;10.25;7.50;;;18.20;99.90;;;;;;5034319;28;20076;-64
2022/08/19 00:42:41;;;;;;;9.38;6.85;;;18.20;99.90;;;;;;5035112;28;20033;-64
2022/08/19 00:45:30;;;;;;;9.65;6.93;;;18.20;99.90;;;;;;5038323;28;20034;-64
2022/08/19 00:47:55;;;;;;;10.35;7.65;;;18.10;99.90;;;;;;5032773;28;20045;-64
2022/08/19 00:50:22;;;;;;;10.82;7.68;;;18.10;99.90;;;;;;5039322;28;20448;-64
2022/08/19 00:52:50;;;;;;;9.15;7.15;;;18.10;99.90;;;;;;5039432;28;20461;-65
2022/08/19 00:55:21;;;;;;;8.75;7.60;;;18.00;99.90;;;;;;5035437;28;20779;-65
2022/08/19 00:57:54;;;;;;;9.75;7.75;;;18.10;99.90;;;;;;5038874;28;20045;-64
2022/08/19 01:00:21;;;;;;;9.25;7.22;;;18.00;99.90;;;;;;5040640;28;20041;-65
2022/08/19 01:02:48;;;;;;;9.75;7.53;;;18.00;99.90;;;;;;5035084;28;20131;-64
2022/08/19 01:05:18;;;;;;;9.52;7.30;;;18.00;99.90;;;;;;5037760;28;20044;-64
2022/08/19 01:07:44;;;;;;;9.07;7.47;;;17.90;99.90;;;;;;5042917;28;20151;-65
2022/08/19 01:10:16;;;;;;;9.25;6.70;;;17.90;99.90;;;;;;5033257;28;20467;-64
2022/08/19 01:12:42;;;;;;;9.20;7.18;;;17.90;99.90;;;;;;5037313;28;20473;-64
2022/08/19 01:15:10;;;;;;;9.10;7.32;;;17.90;99.90;;;;;;5038219;28;20272;-64
2022/08/19 01:17:39;;;;;;;10.18;7.93;;;17.90;99.90;;;;;;5037118;28;20046;-64
2022/08/19 01:20:09;;;;;;;9.80;7.03;;;17.90;99.90;;;;;;5041590;28;20325;-64
2022/08/19 01:22:37;;;;;;;9.50;7.80;;;17.80;99.90;;;;;;5036991;28;20046;-64
2022/08/19 01:25:03;;;;;;;8.68;7.20;;;17.80;99.90;;;;;;5037683;28;20044;-64
2022/08/19 01:27:38;;;;;;;9.38;7.22;;;17.80;99.90;;;;;;5034869;28;20038;-64
2022/08/19 01:30:05;;;;;;;9.07;7.10;;;17.80;99.90;;;;;;5040031;28;20034;-65
2022/08/19 01:32:31;;;;;;;8.88;7.18;;;17.70;99.90;;;;;;5028870;28;20045;-65
2022/08/19 01:34:57;;;;;;;9.95;7.70;;;17.70;99.90;;;;;;5035553;28;20051;-65
2022/08/19 01:37:23;;;;;;;10.48;7.28;;;17.70;99.90;;;;;;5042894;28;20056;-65
2022/08/19 01:39:49;;;;;;;8.82;6.88;;;17.70;99.90;;;;;;5029638;28;20037;-64
2022/08/19 01:42:15;;;;;;;7.95;6.32;;;17.70;99.90;;;;;;5028869;28;20436;-64
2022/08/19 01:44:41;;;;;;;10.25;7.43;;;17.60;99.90;;;;;;5042372;28;20037;-64
2022/08/19 01:47:09;;;;;;;8.82;6.45;;;17.60;99.90;;;;;;5031809;28;20038;-64
2022/08/19 01:49:34;;;;;;;7.75;6.15;;;17.60;99.90;;;;;;5026521;28;20066;-64
2022/08/19 01:52:01;;;;;;;8.25;6.45;;;17.50;99.90;;;;;;5029887;28;20450;-65
2022/08/19 01:54:27;;;;;;;9.02;6.80;;;17.50;99.90;;;;;;5023232;28;20046;-64
2022/08/19 01:56:59;;;;;;;9.18;7.30;;;17.50;99.90;;;;;;5026703;28;20067;-64
2022/08/19 01:59:24;;;;;;;8.90;7.10;;;17.50;99.90;;;;;;5028558;28;20053;-64
2022/08/19 02:01:50;;;;;;;8.77;7.50;;;17.40;99.90;;;;;;5030351;28;20036;-64
2022/08/19 02:04:15;;;;;;;9.45;7.55;;;17.40;99.90;;;;;;5029331;28;20056;-64
2022/08/19 02:06:41;;;;;;;8.52;7.18;;;17.40;99.90;;;;;;5027853;28;20502;-64
2022/08/19 02:09:07;;;;;;;9.60;7.20;;;17.40;99.90;;;;;;5040443;28;20106;-64
2022/08/19 02:11:36;;;;;;;8.50;7.00;;;17.40;99.90;;;;;;5037297;28;20048;-64
2022/08/19 02:14:03;;;;;;;7.97;6.43;;;17.30;99.90;;;;;;5037061;28;20052;-65
2022/08/19 02:16:30;;;;;;;9.80;6.68;;;17.40;99.90;;;;;;5040116;28;20403;-64
2022/08/19 02:18:56;;;;;;;8.40;6.95;;;17.30;99.90;;;;;;5036325;28;20048;-65
2022/08/19 02:21:22;;;;;;;8.50;6.95;;;17.30;99.90;;;;;;5029879;28;20042;-64
2022/08/19 02:23:49;;;;;;;9.23;7.50;;;17.30;99.90;;;;;;5034874;28;20399;-65
2022/08/19 02:26:16;;;;;;;9.48;7.82;;;17.30;99.90;;;;;;5037489;28;20812;-64
2022/08/19 02:28:42;;;;;;;9.20;7.45;;;17.20;99.90;;;;;;5037541;28;20371;-64
2022/08/19 02:31:12;;;;;;;8.52;6.57;;;17.20;99.90;;;;;;5045080;28;20396;-64
2022/08/19 02:33:38;;;;;;;7.72;6.50;;;17.20;99.90;;;;;;5033089;28;20042;-64
2022/08/19 02:36:06;;;;;;;9.57;6.93;;;17.20;99.90;;;;;;5037312;28;20037;-65
2022/08/19 02:38:32;;;;;;;9.32;7.20;;;17.20;99.90;;;;;;5038905;28;20049;-65
2022/08/19 02:41:04;;;;;;;9.25;6.78;;;17.10;99.90;;;;;;5039656;28;20064;-64
2022/08/19 02:43:31;;;;;;;9.90;7.20;;;17.10;99.90;;;;;;5031647;28;20077;-64
2022/08/19 02:45:57;;;;;;;10.10;7.55;;;17.10;99.90;;;;;;5037187;28;20041;-65
2022/08/19 02:48:24;;;;;;;11.82;7.75;;;17.10;99.90;;;;;;5041929;28;20088;-64
2022/08/19 02:50:55;;;;;;;10.40;7.78;;;17.00;99.90;;;;;;5040896;28;20041;-64
2022/08/19 02:53:26;;;;;;;11.52;7.65;;;17.00;99.90;;;;;;5033594;28;20151;-65
2022/08/19 02:55:52;;;;;;;8.35;6.63;;;17.00;99.90;;;;;;5032996;28;20088;-64
2022/08/19 02:58:18;;;;;;;9.38;6.25;;;17.00;99.90;;;;;;5039321;28;20069;-64
2022/08/19 03:00:48;;;;;;;7.90;5.72;;;17.00;99.90;;;;;;5039201;28;20049;-65
2022/08/19 03:03:13;;;;;;;7.35;6.03;;;16.90;99.90;;;;;;5044358;28;20045;-65
2022/08/19 03:05:39;;;;;;;8.43;6.20;;;17.00;99.90;;;;;;5042911;28;20041;-64
2022/08/19 03:08:05;;;;;;;8.18;6.63;;;16.90;99.90;;;;;;5032554;28;20139;-64
2022/08/19 03:10:32;;;;;;;8.20;6.65;;;16.90;99.90;;;;;;5040394;28;20128;-64
2022/08/19 03:12:57;;;;;;;9.15;7.28;;;16.90;99.90;;;;;;5039151;28;20064;-64
2022/08/19 03:15:23;;;;;;;9.63;7.80;;;16.90;99.90;;;;;;5038694;28;20494;-65
2022/08/19 03:17:49;;;;;;;9.30;7.72;;;16.80;99.90;;;;;;5034180;28;20599;-65
2022/08/19 03:20:14;;;;;;;10.10;7.45;;;16.80;99.90;;;;;;5033847;28;20460;-65
2022/08/19 03:22:40;;;;;;;10.48;7.93;;;16.80;99.90;;;;;;5040727;28;20106;-64
2022/08/19 03:25:06;;;;;;;8.93;7.75;;;16.80;99.90;;;;;;5043294;28;20041;-64
2022/08/19 03:27:31;;;;;;;10.30;7.95;;;16.80;99.90;;;;;;5033951;28;20065;-64
2022/08/19 03:29:57;;;;;;;9.73;7.60;;;16.80;99.90;;;;;;5035890;28;20108;-64
2022/08/19 03:32:22;;;;;;;9.80;7.78;;;16.70;99.90;;;;;;5045317;28;20037;-64
2022/08/19 03:34:49;;;;;;;10.68;8.70;;;16.70;99.90;;;;;;5041362;28;20060;-65
2022/08/19 03:37:14;;;;;;;10.73;8.25;;;16.70;99.90;;;;;;5047803;28;20087;-64
2022/08/19 03:39:41;;;;;;;10.07;8.10;;;16.70;99.90;;;;;;5038050;28;20072;-65
2022/08/19 03:42:07;;;;;;;11.38;8.38;;;16.70;99.90;;;;;;5048251;28;20385;-64
2022/08/19 03:44:33;;;;;;;9.77;7.72;;;16.70;99.90;;;;;;5041897;28;20055;-65
2022/08/19 03:47:00;;;;;;;8.90;7.22;;;16.70;99.90;;;;;;5039248;28;20045;-65
2022/08/19 03:49:28;;;;;;;8.95;7.60;;;16.60;99.90;;;;;;5038612;28;20115;-64
2022/08/19 03:51:56;;;;;;;9.43;7.15;;;16.60;99.90;;;;;;5031981;28;20049;-65
2022/08/19 03:54:24;;;;;;;11.23;7.75;;;16.60;99.90;;;;;;5036650;28;20048;-65
2022/08/19 03:56:51;;;;;;;10.05;7.25;;;16.60;99.90;;;;;;5042422;28;20453;-64
2022/08/19 03:59:25;;;;;;;9.30;7.28;;;16.60;99.90;;;;;;5039155;28;20037;-64
2022/08/19 04:01:53;;;;;;;7.70;6.32;;;16.60;99.90;;;;;;5042605;28;20053;-64
2022/08/19 04:04:18;;;;;;;8.52;6.85;;;16.60;99.90;;;;;;5042312;28;20091;-64
2022/08/19 04:06:44;;;;;;;9.20;6.60;;;16.50;99.90;;;;;;5037826;28;20945;-64
2022/08/19 04:09:11;;;;;;;8.90;6.47;;;16.50;99.90;;;;;;5036347;28;20045;-63
2022/08/19 04:11:50;;;;;;;10.25;7.82;;;16.50;99.90;;;;;;5039110;28;20103;-64
2022/08/19 04:14:21;;;;;;;9.52;7.35;;;16.40;99.90;;;;;;5046616;28;20047;-64
2022/08/19 04:16:47;;;;;;;8.68;6.70;;;16.50;99.90;;;;;;5035003;28;20045;-65
2022/08/19 04:19:15;;;;;;;8.93;6.82;;;16.40;99.90;;;;;;5038055;28;20045;-65
2022/08/19 04:21:43;;;;;;;9.20;7.00;;;16.40;99.90;;;;;;5042563;28;20033;-64
2022/08/19 04:24:10;;;;;;;9.80;7.03;;;16.50;99.90;;;;;;5038605;28;20091;-64
2022/08/19 04:26:37;;;;;;;8.98;6.82;;;16.40;99.90;;;;;;5048220;28;20116;-64
2022/08/19 04:29:08;;;;;;;10.35;6.78;;;16.40;99.90;;;;;;5036370;28;20120;-64
2022/08/19 04:31:35;;;;;;;12.60;7.10;;;16.40;99.90;;;;;;5043567;28;20106;-64
2022/08/19 04:34:03;;;;;;;9.32;7.22;;;16.40;99.90;;;;;;5035893;28;20045;-64
2022/08/19 04:36:34;;;;;;;9.23;7.28;;;16.40;99.90;;;;;;5032558;28;20385;-64
2022/08/19 04:39:06;;;;;;;9.93;7.57;;;16.40;99.90;;;;;;5036573;28;20556;-63
2022/08/19 04:44:19;;;;;;;9.38;7.00;;;16.40;99.90;;;;;;5043234;28;20053;-65
2022/08/19 04:46:47;;;;;;;10.25;7.13;;;16.30;99.90;;;;;;5045153;28;20114;-64
2022/08/19 04:49:13;;;;;;;10.50;7.93;;;16.30;99.90;;;;;;5038772;28;20041;-64
2022/08/19 04:51:42;;;;;;;10.50;8.18;;;16.40;99.90;;;;;;5037491;28;20045;-64
2022/08/19 04:54:07;;;;;;;9.63;7.53;;;16.40;99.90;;;;;;5037293;28;20853;-64
2022/08/19 04:56:33;;;;;;;11.38;8.45;;;16.40;99.90;;;;;;5040489;28;20052;-64
2022/08/19 04:59:03;;;;;;;10.30;8.50;;;16.40;99.90;;;;;;5042845;28;20076;-64
2022/08/19 05:01:30;;;;;;;10.55;8.73;;;16.30;99.90;;;;;;5041356;28;20048;-65
2022/08/19 05:03:57;;;;;;;10.77;8.52;;;16.30;99.90;;;;;;5039780;28;20071;-65
2022/08/19 05:06:23;;;;;;;9.38;7.50;;;16.40;99.90;;;;;;5040190;28;20124;-65
2022/08/19 05:08:49;;;;;;;10.27;7.97;;;16.40;99.90;;;;;;5045840;28;20052;-65
2022/08/19 05:11:27;;;;;;;10.88;9.00;;;16.40;99.90;;;;;;5045731;28;20064;-66
2022/08/19 05:13:53;;;;;;;10.88;8.02;;;16.50;99.90;;;;;;5041385;28;20048;-66
2022/08/19 05:16:21;;;;;;;11.57;8.40;;;16.50;99.90;;;;;;5040770;28;20037;-66
2022/08/19 05:24:17;;;;;;;10.05;7.90;;;16.70;99.90;;;;;;5040064;28;20118;-65
2022/08/19 05:26:46;;;;;;;9.73;7.68;;;16.80;99.90;;;;;;5043338;28;20041;-64
2022/08/19 05:29:13;;;;;;;11.90;8.50;;;17.00;99.90;;;;;;5032837;28;20045;-64
2022/08/19 05:31:39;;;;;;;9.75;8.07;;;17.10;99.90;;;;;;5040290;28;20041;-65
2022/08/19 05:34:06;;;;;;;12.00;9.20;;;17.20;99.90;;;;;;5036875;28;20045;-65
2022/08/19 05:36:56;;;;;;;12.48;10.00;;;17.20;99.90;;;;;;5036730;28;20120;-65
2022/08/19 05:39:25;;;;;;;12.07;10.13;;;17.40;99.90;;;;;;5038122;28;20457;-64
2022/08/19 05:41:58;;;;;;;12.68;10.77;;;17.40;99.90;;;;;;5046285;28;20071;-64
2022/08/19 05:44:25;;;;;;;16.00;11.10;;;17.50;99.90;;;;;;5040437;28;20042;-64
2022/08/19 05:46:54;;;;;;;15.35;11.43;;;17.60;99.90;;;;;;5036695;28;20051;-64
2022/08/19 05:49:22;;;;;;;14.85;12.07;;;17.70;99.90;;;;;;5036348;28;20061;-64
2022/08/19 05:51:48;;;;;;;16.95;12.93;;;17.80;99.90;;;;;;5035600;28;20085;-66
2022/08/19 05:54:13;;;;;;;16.15;12.23;;;17.90;99.90;;;;;;5045454;28;20065;-65
2022/08/19 05:56:41;;;;;;;16.38;12.98;;;17.90;99.90;;;;;;5040753;28;20037;-66
2022/08/19 05:59:10;;;;;;;18.70;13.10;;;18.00;99.90;;;;;;5037773;28;20091;-65
2022/08/19 06:01:40;;;;;;;17.30;12.73;;;18.00;99.90;;;;;;5036346;28;20111;-66
2022/08/19 06:04:06;;;;;;;15.13;12.30;;;18.10;99.90;;;;;;5038493;28;20059;-65
2022/08/19 06:06:33;;;;;;;16.15;12.77;;;18.20;99.90;;;;;;5039663;28;20436;-66
2022/08/19 06:09:00;;;;;;;15.90;12.38;;;18.30;99.90;;;;;;5047645;28;20065;-66
2022/08/19 06:11:43;;;;;;;17.58;13.45;;;18.40;99.90;;;;;;5046166;28;20322;-66
2022/08/19 06:14:11;;;;;;;16.48;12.93;;;18.50;99.90;;;;;;5042939;28;20037;-66
2022/08/19 06:16:39;;;;;;;15.30;13.38;;;18.60;99.90;;;;;;5039867;28;20041;-66
2022/08/19 06:19:11;;;;;;;16.45;13.63;;;18.70;99.90;;;;;;5042566;28;20041;-66
2022/08/19 06:21:39;;;;;;;18.35;13.80;;;18.70;99.90;;;;;;5040855;28;20128;-66
2022/08/19 06:24:07;;;;;;;17.40;12.98;;;18.70;99.90;;;;;;5037206;28;20044;-66
2022/08/19 06:26:37;;;;;;;15.60;13.32;;;18.80;99.90;;;;;;5039028;28;20473;-65
2022/08/19 06:29:06;;;;;;;15.35;12.55;;;18.90;99.90;;;;;;5037399;28;20584;-66
2022/08/19 06:31:33;;;;;;;18.48;13.18;;;19.00;99.90;;;;;;5040622;28;20476;-66
2022/08/19 06:34:04;;;;;;;16.85;13.45;;;19.00;99.90;;;;;;5044559;28;20044;-66
2022/08/19 06:36:36;;;;;;;17.58;12.40;;;19.10;99.90;;;;;;5033738;28;20190;-66
2022/08/19 06:39:05;;;;;;;17.60;13.85;;;19.20;99.90;;;;;;5037338;28;20083;-66
2022/08/19 06:41:35;;;;;;;18.38;14.23;;;19.30;99.90;;;;;;5039183;28;20037;-66
2022/08/19 06:44:01;;;;;;;16.83;12.82;;;19.40;99.90;;;;;;5040249;28;20513;-68
2022/08/19 06:46:27;;;;;;;20.02;15.77;;;19.50;99.90;;;;;;5034411;28;20037;-65
2022/08/19 06:48:54;;;;;;;19.83;14.73;;;19.60;99.90;;;;;;5033815;28;20442;-66
2022/08/19 06:51:20;;;;;;;16.02;14.00;;;19.70;99.90;;;;;;5042020;28;20043;-66
2022/08/19 06:53:48;;;;;;;20.70;15.00;;;19.70;99.90;;;;;;5040027;28;20052;-66
2022/08/19 06:56:16;;;;;;;16.40;13.73;;;19.90;99.90;;;;;;5044536;28;20387;-64
2022/08/19 06:58:42;;;;;;;19.17;14.50;;;20.00;99.90;;;;;;5039796;28;20140;-65
2022/08/19 07:01:08;;;;;;;17.65;14.85;;;20.10;99.90;;;;;;5041835;28;20854;-65
2022/08/19 07:03:35;;;;;;;16.42;14.27;;;20.20;99.90;;;;;;5038811;28;20063;-65
2022/08/19 07:06:12;;;;;;;18.63;15.75;;;20.30;99.90;;;;;;5044244;28;20198;-65
2022/08/19 07:08:40;;;;;;;18.77;15.48;;;20.40;99.90;;;;;;5041283;28;20145;-64
2022/08/19 07:11:13;;;;;;;17.52;15.52;;;20.50;99.90;;;;;;5047477;28;20425;-65
2022/08/19 07:13:39;;;;;;;18.38;14.80;;;20.60;99.90;;;;;;5040213;28;20243;-67
2022/08/19 07:16:11;;;;;;;18.90;15.55;;;20.60;99.90;;;;;;5035708;28;20429;-65
2022/08/19 07:18:37;;;;;;;16.23;12.25;;;20.70;99.90;;;;;;5044490;28;20215;-65
2022/08/19 07:21:07;;;;;;;12.63;9.27;;;20.80;99.90;;;;;;5038330;28;20124;-64
2022/08/19 07:23:33;;;;;;;14.73;12.02;;;20.90;99.90;;;;;;5048651;28;20496;-66
2022/08/19 07:26:11;;;;;;;20.23;15.20;;;21.00;99.90;;;;;;5044278;28;20080;-68
2022/08/19 07:28:39;;;;;;;13.38;11.02;;;21.10;99.90;;;;;;5044007;28;20121;-69
2022/08/19 07:31:07;;;;;;;16.77;14.30;;;21.20;99.90;;;;;;5039372;28;20053;-70
2022/08/19 07:33:36;;;;;;;14.93;11.20;;;21.30;99.90;;;;;;5047432;28;20033;-71
2022/08/19 07:36:05;;;;;;;12.00;10.27;;;21.40;99.90;;;;;;5043804;28;20144;-69
2022/08/19 07:38:31;;;;;;;16.50;12.57;;;21.50;99.90;;;;;;5040975;28;20110;-69
2022/08/19 07:40:57;;;;;;;13.05;10.45;;;21.60;99.90;;;;;;5047265;28;20033;-69
2022/08/19 07:43:24;;;;;;;13.40;12.00;;;21.70;99.90;;;;;;5048729;28;20041;-70
2022/08/19 07:45:51;;;;;;;15.20;9.90;;;21.80;99.90;;;;;;5030932;28;20041;-70
2022/08/19 07:48:17;;;;;;;17.33;15.05;;;21.90;99.90;;;;;;5034707;28;20124;-73
2022/08/19 07:50:42;;;;;;;19.23;16.30;;;21.90;99.90;;;;;;5045765;28;20423;-70
2022/08/19 07:53:08;;;;;;;19.20;14.80;;;21.90;99.90;;;;;;5041913;28;20095;-69
2022/08/19 07:55:34;;;;;;;12.90;9.77;;;22.00;99.90;;;;;;5043113;28;20073;-67
2022/08/19 07:57:59;;;;;;;11.63;9.27;;;22.10;99.90;;;;;;5042432;28;20101;-67
2022/08/19 08:00:25;;;;;;;20.60;15.63;;;22.20;99.90;;;;;;5041056;28;20048;-65
2022/08/19 08:02:52;;;;;;;16.33;14.18;;;22.30;99.90;;;;;;5031430;28;20049;-65
2022/08/19 08:10:46;;;;;;;18.73;16.60;;;22.60;99.90;;;;;;5049609;28;20045;-68
2022/08/19 08:13:12;;;;;;;18.58;16.48;;;22.70;99.90;;;;;;5050108;28;20378;-67
2022/08/19 08:15:39;;;;;;;19.63;16.45;;;22.70;99.90;;;;;;5038514;28;20025;-67
2022/08/19 08:18:05;;;;;;;19.05;17.05;;;22.70;99.90;;;;;;5041440;28;20064;-66
2022/08/19 08:20:31;;;;;;;19.05;15.82;;;22.90;99.90;;;;;;5038264;28;20045;-65
2022/08/19 08:25:41;;;;;;;14.60;11.88;;;23.10;99.90;;;;;;5042618;28;20080;-66
2022/08/19 08:28:08;;;;;;;17.20;13.52;;;23.10;99.90;;;;;;5041418;28;20384;-67
2022/08/19 08:30:35;;;;;;;20.65;17.75;;;23.20;99.90;;;;;;5042822;28;20063;-65
2022/08/19 08:33:01;;;;;;;13.60;10.85;;;23.30;99.90;;;;;;5046643;28;20077;-65
2022/08/19 08:35:27;;;;;;;15.32;12.73;;;23.40;99.90;;;;;;5042058;28;21723;-65
2022/08/19 08:37:54;;;;;;;22.58;19.52;;;23.50;99.90;;;;;;5046317;28;20037;-65
2022/08/19 08:40:39;;;;;;;21.10;18.27;;;23.50;99.90;;;;;;5037188;28;20163;-66
2022/08/19 08:43:27;;;;;;;18.83;15.13;;;23.50;99.90;;;;;;5036180;28;20059;-66
2022/08/19 08:46:00;;;;;;;15.73;13.30;;;23.60;99.90;;;;;;5047682;28;20041;-66
2022/08/19 08:48:34;;;;;;;19.98;16.92;;;23.70;99.90;;;;;;5049018;28;20417;-67
2022/08/19 08:51:02;;;;;;;13.57;9.90;;;23.70;99.90;;;;;;5045152;28;20053;-66
2022/08/19 08:53:30;;;;;;;17.88;15.30;;;23.80;99.90;;;;;;5046194;28;20042;-67
2022/08/19 08:55:56;;;;;;;17.92;15.57;;;23.80;99.90;;;;;;5045879;28;20130;-68
2022/08/19 08:58:33;;;;;;;19.45;15.70;;;23.90;99.90;;;;;;5049540;28;20154;-68
2022/08/19 09:00:59;;;;;;;19.45;16.58;;;23.90;99.90;;;;;;5055122;28;20170;-66
2022/08/19 09:03:27;;;;;;;18.60;14.60;;;24.10;99.90;;;;;;5040753;28;20148;-66
2022/08/19 09:06:07;;;;;;;16.52;14.65;;;24.10;99.90;;;;;;5050383;28;20336;-66
2022/08/19 09:09:09;;;;;;;18.13;15.88;;;24.20;99.90;;;;;;5049583;28;20067;-65
2022/08/19 09:11:44;;;;;;;18.90;16.83;;;24.20;99.90;;;;;;5040671;28;20752;-64
2022/08/19 09:14:47;;;;;;;10.85;8.88;;;24.30;99.90;;;;;;5049037;28;20041;-64
2022/08/19 09:17:14;;;;;;;13.27;11.57;;;24.30;99.90;;;;;;5048239;28;20595;-64
2022/08/19 09:19:49;;;;;;;20.50;17.65;;;24.50;99.90;;;;;;5048440;28;20051;-65
2022/08/19 09:22:15;;;;;;;16.25;13.93;;;24.60;99.90;;;;;;5050400;28;20102;-64
2022/08/19 09:24:41;;;;;;;19.88;15.93;;;24.70;99.90;;;;;;5052356;28;20424;-64
2022/08/19 09:27:06;;;;;;;18.73;16.73;;;24.80;99.90;;;;;;5038490;28;20056;-64
2022/08/19 09:29:32;;;;;;;20.33;16.50;;;24.80;99.90;;;;;;5038076;28;20121;-63
2022/08/19 09:31:57;;;;;;;16.08;12.23;;;24.90;99.90;;;;;;5032064;28;20634;-67
2022/08/19 09:34:23;;;;;;;15.25;13.63;;;25.00;99.90;;;;;;5035631;28;20441;-65
2022/08/19 09:36:52;;;;;;;19.42;14.15;;;25.10;99.90;;;;;;5041201;28;20040;-64
2022/08/19 09:39:19;;;;;;;16.60;13.18;;;25.00;99.90;;;;;;5038562;28;20045;-64
2022/08/19 09:41:44;;;;;;;15.55;12.98;;;25.00;99.90;;;;;;5041791;28;20040;-66
2022/08/19 09:44:11;;;;;;;14.98;12.05;;;25.00;99.90;;;;;;5047502;28;20048;-67
2022/08/19 09:46:37;;;;;;;19.48;14.35;;;25.10;99.90;;;;;;5043887;28;20456;-67
2022/08/19 09:49:05;;;;;;;18.77;14.68;;;25.10;99.90;;;;;;5037152;28;20049;-67
2022/08/19 09:51:31;;;;;;;16.00;12.52;;;25.10;99.90;;;;;;5034165;28;20218;-65
2022/08/19 09:54:01;;;;;;;17.23;12.60;;;25.10;99.90;;;;;;5035278;28;20176;-64
2022/08/19 09:56:27;;;;;;;14.30;11.75;;;25.20;99.90;;;;;;5035548;28;20148;-64
2022/08/19 09:58:53;;;;;;;16.48;13.15;;;25.10;99.90;;;;;;5038734;28;20388;-65
2022/08/19 10:01:22;;;;;;;15.80;13.98;;;25.00;99.90;;;;;;5040592;28;20040;-63
2022/08/19 10:03:54;;;;;;;20.33;17.25;;;24.90;99.90;;;;;;5044689;28;20043;-64
2022/08/19 10:06:21;;;;;;;20.77;16.60;;;24.80;99.90;;;;;;5048325;28;20162;-65
2022/08/19 10:08:47;;;;;;;19.00;16.58;;;24.80;99.90;;;;;;5039683;28;20115;-64
2022/08/19 10:11:15;;;;;;;21.48;18.20;;;24.80;99.90;;;;;;5042541;28;20048;-64
2022/08/19 10:13:41;;;;;;;21.67;18.83;;;24.90;99.90;;;;;;5046547;28;20099;-64
2022/08/19 10:16:10;;;;;;;20.33;17.00;;;24.80;99.90;;;;;;5037786;28;20040;-66
2022/08/19 10:18:36;;;;;;;20.65;18.45;;;24.80;99.90;;;;;;5034109;28;20054;-65
2022/08/19 10:21:14;;;;;;;23.77;21.27;;;24.70;99.90;;;;;;5039416;28;20069;-66
2022/08/19 10:23:44;;;;;;;22.77;20.48;;;24.60;99.90;;;;;;5034076;28;20125;-64
2022/08/19 10:26:12;;;;;;;23.15;20.75;;;24.50;99.90;;;;;;5036797;28;20041;-67
2022/08/19 10:28:38;;;;;;;21.85;19.42;;;24.70;99.90;;;;;;5033225;28;20045;-65
2022/08/19 10:31:10;;;;;;;18.42;16.50;;;24.80;99.90;;;;;;5025951;28;20521;-65
2022/08/19 10:33:36;;;;;;;21.77;19.13;;;24.90;99.90;;;;;;5030217;28;20041;-65
2022/08/19 10:36:05;;;;;;;19.65;17.65;;;25.00;99.90;;;;;;5035698;28;20049;-66
2022/08/19 10:38:31;;;;;;;17.60;15.70;;;25.10;99.90;;;;;;5041829;28;20126;-67
2022/08/19 10:40:57;;;;;;;18.67;14.43;;;25.10;99.90;;;;;;5041781;28;20081;-65
2022/08/19 10:43:24;;;;;;;17.08;15.38;;;25.30;99.90;;;;;;5046289;28;20116;-65
2022/08/19 10:45:58;;;;;;;18.88;16.13;;;25.40;99.90;;;;;;5037450;28;20376;-66
2022/08/19 10:48:24;;;;;;;22.33;17.30;;;25.60;99.90;;;;;;5038695;28;20041;-66
2022/08/19 10:53:34;;;;;;;18.13;14.80;;;25.70;99.90;;;;;;5041396;28;20061;-66
2022/08/19 10:58:48;;;;;;;17.83;15.93;;;25.80;99.90;;;;;;5042285;28;20049;-66
2022/08/19 11:01:14;;;;;;;24.48;19.50;;;25.90;99.90;;;;;;5038027;28;20068;-66
2022/08/19 11:03:40;;;;;;;17.83;15.98;;;26.10;99.90;;;;;;5046778;28;20048;-66
2022/08/19 11:06:07;;;;;;;17.15;13.98;;;26.00;99.90;;;;;;5044092;28;20056;-67
2022/08/19 11:08:34;;;;;;;21.33;17.48;;;26.00;99.90;;;;;;5041171;28;20049;-67
2022/08/19 11:11:02;;;;;;;19.52;17.52;;;26.10;99.90;;;;;;5043290;28;20124;-66
2022/08/19 11:13:30;;;;;;;21.60;18.67;;;26.20;99.90;;;;;;5037094;28;20041;-66
2022/08/19 11:16:01;;;;;;;19.95;17.85;;;26.30;99.90;;;;;;5037313;28;20041;-65
2022/08/19 11:18:27;;;;;;;23.65;20.95;;;26.30;99.90;;;;;;5038072;28;20142;-66
2022/08/19 11:20:52;;;;;;;20.67;17.58;;;26.30;99.90;;;;;;5035587;28;20065;-66
2022/08/19 11:23:18;;;;;;;21.73;18.27;;;26.30;99.90;;;;;;5050579;28;20045;-66
2022/08/19 11:25:45;;;;;;;23.45;19.60;;;26.30;99.90;;;;;;5042904;28;20051;-65
2022/08/19 11:28:11;;;;;;;22.88;19.25;;;26.40;99.90;;;;;;5038613;28;20049;-66
2022/08/19 11:30:38;;;;;;;18.80;15.10;;;26.40;99.90;;;;;;5045014;28;20052;-65
2022/08/19 11:33:03;;;;;;;16.60;14.50;;;26.50;99.50;;;;;;5040243;28;20068;-64
2022/08/19 11:35:29;;;;;;;17.15;15.27;;;26.50;99.20;;;;;;5035677;28;20380;-65
2022/08/19 11:37:55;;;;;;;17.95;13.98;;;26.40;99.30;;;;;;5043102;28;20052;-65
2022/08/19 11:40:21;;;;;;;13.10;11.45;;;26.40;99.10;;;;;;5045756;28;20122;-65
2022/08/19 11:42:56;;;;;;;19.67;16.55;;;26.40;99.10;;;;;;5044653;28;20080;-65
2022/08/19 11:45:27;;;;;;;18.27;15.55;;;26.30;99.20;;;;;;5036453;28;20071;-65
2022/08/19 11:47:53;;;;;;;19.13;16.92;;;26.40;99.20;;;;;;5039590;28;20037;-64
2022/08/19 11:50:19;;;;;;;18.95;15.15;;;26.40;98.90;;;;;;5042119;28;20041;-64
2022/08/19 11:52:45;;;;;;;20.58;16.80;;;26.50;99.20;;;;;;5043082;28;20654;-65
2022/08/19 11:55:13;;;;;;;18.35;14.25;;;26.50;99.20;;;;;;5038023;28;20843;-64
2022/08/19 11:57:40;;;;;;;19.00;16.02;;;26.60;98.90;;;;;;5040967;28;20115;-64
2022/08/19 12:00:07;;;;;;;19.05;15.25;;;26.60;98.60;;;;;;5047286;28;20045;-63
2022/08/19 12:02:33;;;;;;;16.88;12.90;;;26.60;98.90;;;;;;5035266;28;20073;-65
2022/08/19 12:05:02;;;;;;;16.73;10.95;;;26.60;98.40;;;;;;5039963;28;20068;-64
2022/08/19 12:07:30;;;;;;;13.13;10.48;;;26.70;97.90;;;;;;5037341;28;20117;-65
2022/08/19 12:09:56;;;;;;;17.15;14.80;;;26.80;98.20;;;;;;5033508;28;20480;-65
2022/08/19 12:12:23;;;;;;;18.13;12.90;;;26.90;98.10;;;;;;5042610;28;20124;-67
2022/08/19 12:14:50;;;;;;;18.98;15.98;;;26.90;98.20;;;;;;5034145;28;20053;-64
2022/08/19 12:17:16;;;;;;;17.85;13.70;;;26.90;98.20;;;;;;5042976;28;20045;-65
2022/08/19 12:19:41;;;;;;;16.05;11.43;;;26.80;98.20;;;;;;5043219;28;20958;-65
2022/08/19 12:22:07;;;;;;;14.05;11.30;;;26.90;98.20;;;;;;5044438;28;20045;-66
2022/08/19 12:24:34;;;;;;;12.73;10.45;;;27.00;97.50;;;;;;5045413;28;20036;-64
2022/08/19 12:27:01;;;;;;;14.90;10.90;;;27.10;97.40;;;;;;5048703;28;20048;-66
2022/08/19 12:29:29;;;;;;;16.13;12.52;;;27.20;97.40;;;;;;5043066;28;20122;-64
2022/08/19 12:32:00;;;;;;;11.48;9.25;;;27.30;97.10;;;;;;5049305;28;20408;-64
2022/08/19 12:34:29;;;;;;;14.55;10.70;;;27.30;96.50;;;;;;5042438;28;20452;-64
2022/08/19 12:36:56;;;;;;;17.55;15.20;;;27.40;96.70;;;;;;5040463;28;20464;-64
2022/08/19 12:39:22;;;;;;;15.93;12.65;;;27.30;96.70;;;;;;5045133;28;20112;-65
2022/08/19 12:41:48;;;;;;;14.93;11.52;;;27.40;97.00;;;;;;5030673;28;20049;-65
2022/08/19 12:44:14;;;;;;;14.45;10.00;;;27.50;97.40;;;;;;5046825;28;20175;-64
2022/08/19 12:46:40;;;;;;;12.82;9.57;;;27.50;96.40;;;;;;5045661;28;20119;-64
2022/08/19 12:49:05;;;;;;;13.20;10.05;;;27.60;96.10;;;;;;5033754;28;20417;-66
2022/08/19 12:51:31;;;;;;;16.20;12.43;;;27.60;95.80;;;;;;5035223;28;20052;-65
2022/08/19 12:53:57;;;;;;;13.77;10.52;;;27.60;95.90;;;;;;5035710;28;20040;-65
2022/08/19 12:56:22;;;;;;;16.10;12.32;;;27.60;96.00;;;;;;5029207;28;20699;-64
2022/08/19 12:58:49;;;;;;;12.90;9.93;;;27.70;95.90;;;;;;5036540;28;20404;-64
2022/08/19 13:01:16;;;;;;;13.32;11.00;;;27.60;95.60;;;;;;5048445;28;20052;-64